Time;durP1;ratioP1;P1;durP2;ratioP2;P2;SDS_P1;SDS_P2;PMS_P1;PMS_P2;Temp;Humidity;BMP_temperature;BMP_pressure;BME280_temperature;BME280_humidity;BME280_pressure;Samples;Min_cycle;Max_cycle;Signal;HPM_P1;HPM_P2
2022/08/31 00:04:01;;;;;;;20.95;6.10;;;;;;;;;;5003935;28;20034;-65
2022/08/31 00:06:27;;;;;;;;;;;;;;;;;;5003562;28;20042;-65
2022/08/31 00:08:53;;;;;;;16.90;5.13;;;;;;;;;;5011689;28;19905;-65
2022/08/31 00:11:27;;;;;;;17.92;4.70;;;;;;;;;;5008593;28;20113;-65
2022/08/31 00:13:54;;;;;;;19.55;5.40;;;;;;;;;;5005627;28;20088;-65
2022/08/31 00:16:21;;;;;;;21.80;5.20;;;;;;;;;;5005650;28;20022;-65
2022/08/31 00:18:51;;;;;;;22.00;5.32;;;;;;;;;;5014440;28;20026;-65
2022/08/31 00:21:18;;;;;;;16.60;4.95;;;;;;;;;;5012825;28;20097;-65
2022/08/31 00:23:44;;;;;;;21.92;5.28;;;;;;;;;;5007856;28;20018;-65
2022/08/31 00:26:11;;;;;;;16.45;4.68;;;;;;;;;;5016507;28;20117;-65
2022/08/31 00:28:37;;;;;;;17.90;5.05;;;;;;;;;;5009748;28;20026;-65
2022/08/31 00:31:03;;;;;;;22.85;4.60;;;;;;;;;;5001253;28;20041;-65
2022/08/31 00:33:29;;;;;;;23.85;6.05;;;;;;;;;;5010192;28;20080;-65
2022/08/31 00:35:57;;;;;;;16.38;5.25;;;;;;;;;;5029041;28;20482;-65
2022/08/31 00:38:23;;;;;;;16.75;5.25;;;;;;;;;;5025959;28;20033;-65
2022/08/31 00:40:50;;;;;;;21.85;4.85;;;;;;;;;;5008931;28;20030;-65
2022/08/31 00:43:35;;;;;;;16.33;4.78;;;;;;;;;;5029570;28;20168;-65
2022/08/31 00:46:01;;;;;;;21.98;5.30;;;;;;;;;;5003524;28;20421;-65
2022/08/31 00:48:27;;;;;;;15.43;4.63;;;;;;;;;;5028864;28;20112;-65
2022/08/31 00:50:53;;;;;;;16.80;4.05;;;;;;;;;;5028851;28;20478;-65
2022/08/31 00:53:19;;;;;;;19.10;4.60;;;;;;;;;;5013552;28;20018;-65
2022/08/31 00:55:46;;;;;;;22.42;5.70;;;;;;;;;;5013850;28;20061;-65
2022/08/31 00:58:12;;;;;;;15.52;4.18;;;;;;;;;;5028831;28;20034;-65
2022/08/31 01:00:41;;;;;;;21.40;5.07;;;;;;;;;;5014340;28;20030;-65
2022/08/31 01:03:08;;;;;;;20.27;5.45;;;;;;;;;;5013612;28;20022;-65
2022/08/31 01:05:35;;;;;;;20.02;4.28;;;;;;;;;;5028345;28;20478;-65
2022/08/31 01:08:02;;;;;;;22.23;5.03;;;;;;;;;;5013288;28;20049;-65
2022/08/31 01:10:31;;;;;;;19.52;4.57;;;;;;;;;;5038551;28;20427;-65
2022/08/31 01:12:58;;;;;;;21.67;5.38;;;;;;;;;;5025044;28;20065;-65
2022/08/31 01:15:25;;;;;;;17.20;4.55;;;;;;;;;;5012818;28;20029;-65
2022/08/31 01:17:53;;;;;;;14.52;4.50;;;;;;;;;;5017786;28;20026;-65
2022/08/31 01:20:47;;;;;;;15.27;4.90;;;;;;;;;;5001598;28;20029;-65
2022/08/31 01:23:19;;;;;;;17.80;4.35;;;;;;;;;;5005981;28;20036;-65
2022/08/31 01:25:46;;;;;;;15.60;4.28;;;;;;;;;;5013565;28;20087;-65
2022/08/31 01:28:13;;;;;;;16.55;4.60;;;;;;;;;;5013025;28;20033;-65
2022/08/31 01:30:40;;;;;;;18.30;4.50;;;;;;;;;;5012527;28;20044;-65
2022/08/31 01:33:08;;;;;;;16.20;4.50;;;;;;;;;;5044029;28;20084;-65
2022/08/31 01:35:34;;;;;;;15.38;4.65;;;;;;;;;;5003752;28;20116;-65
2022/08/31 01:38:01;;;;;;;13.48;3.88;;;;;;;;;;5011790;28;20030;-65
2022/08/31 01:40:33;;;;;;;11.30;4.07;;;;;;;;;;5024725;28;20383;-65
2022/08/31 01:42:59;;;;;;;18.83;5.63;;;;;;;;;;5030880;28;20030;-65
2022/08/31 01:45:25;;;;;;;20.85;4.50;;;;;;;;;;5012522;28;20057;-65
2022/08/31 01:47:52;;;;;;;18.92;5.05;;;;;;;;;;5007042;28;20390;-65
2022/08/31 01:50:18;;;;;;;25.10;4.70;;;;;;;;;;4999487;28;20037;-65
2022/08/31 01:52:44;;;;;;;18.60;4.90;;;;;;;;;;5007288;28;20053;-65
2022/08/31 01:55:10;;;;;;;19.50;5.35;;;;;;;;;;5029026;28;20057;-65
2022/08/31 01:57:36;;;;;;;23.60;5.28;;;;;;;;;;5003953;28;20029;-65
2022/08/31 02:00:29;;;;;;;16.08;4.05;;;;;;;;;;5015801;28;20021;-65
2022/08/31 02:02:58;;;;;;;18.50;4.68;;;;;;;;;;5013481;28;20038;-65
2022/08/31 02:05:24;;;;;;;24.75;6.07;;;;;;;;;;5011593;28;20022;-65
2022/08/31 02:07:51;;;;;;;17.40;4.70;;;;;;;;;;4998000;28;20185;-65
2022/08/31 02:10:17;;;;;;;19.77;6.13;;;;;;;;;;5009947;28;20045;-65
2022/08/31 02:12:43;;;;;;;21.33;5.55;;;;;;;;;;5032312;28;20084;-65
2022/08/31 02:15:09;;;;;;;16.73;4.88;;;;;;;;;;5010274;28;20026;-65
2022/08/31 02:17:36;;;;;;;29.10;5.90;;;;;;;;;;5003824;28;20109;-65
2022/08/31 02:20:04;;;;;;;18.92;4.93;;;;;;;;;;5027255;28;20521;-65
2022/08/31 02:22:30;;;;;;;27.88;5.57;;;;;;;;;;5027725;28;20036;-65
2022/08/31 02:24:57;;;;;;;22.02;5.30;;;;;;;;;;5027448;28;20041;-65
2022/08/31 02:27:24;;;;;;;25.80;5.78;;;;;;;;;;5005733;28;20390;-65
2022/08/31 02:29:51;;;;;;;33.45;5.38;;;;;;;;;;5012769;28;20018;-65
2022/08/31 02:32:17;;;;;;;20.90;5.47;;;;;;;;;;5044072;28;20069;-65
2022/08/31 02:34:43;;;;;;;31.20;5.70;;;;;;;;;;5018354;28;20030;-65
2022/08/31 02:37:10;;;;;;;17.27;5.13;;;;;;;;;;5005648;28;20107;-65
2022/08/31 02:39:37;;;;;;;30.33;6.35;;;;;;;;;;5025311;28;20040;-65
2022/08/31 02:42:03;;;;;;;21.98;5.22;;;;;;;;;;5043581;28;20026;-65
2022/08/31 02:44:29;;;;;;;28.33;5.15;;;;;;;;;;5005677;28;20105;-65
2022/08/31 02:46:55;;;;;;;21.67;5.55;;;;;;;;;;5028624;28;20045;-65
2022/08/31 02:49:35;;;;;;;23.50;5.60;;;;;;;;;;5034473;28;20048;-65
2022/08/31 02:52:02;;;;;;;22.60;5.45;;;;;;;;;;5047480;28;20033;-65
2022/08/31 02:54:28;;;;;;;21.23;5.18;;;;;;;;;;5036089;28;20022;-65
2022/08/31 02:56:54;;;;;;;29.25;4.85;;;;;;;;;;5021258;28;20076;-65
2022/08/31 02:59:20;;;;;;;20.10;5.10;;;;;;;;;;5010054;28;20022;-65
2022/08/31 03:01:47;;;;;;;25.17;5.68;;;;;;;;;;5028386;28;20080;-65
2022/08/31 03:04:17;;;;;;;28.30;5.45;;;;;;;;;;5008195;28;20732;-65
2022/08/31 03:06:46;;;;;;;29.90;5.57;;;;;;;;;;5030535;28;20054;-65
2022/08/31 03:09:14;;;;;;;25.75;5.47;;;;;;;;;;5003435;28;20526;-65
2022/08/31 03:11:41;;;;;;;25.80;5.82;;;;;;;;;;5010673;28;20037;-65
2022/08/31 03:14:08;;;;;;;22.77;6.18;;;;;;;;;;5046877;28;20520;-65
2022/08/31 03:16:34;;;;;;;23.17;5.53;;;;;;;;;;5030351;28;20092;-65
2022/08/31 03:19:01;;;;;;;22.25;5.75;;;;;;;;;;5036787;28;20065;-65
2022/08/31 03:21:27;;;;;;;26.67;5.88;;;;;;;;;;5015787;28;20030;-65
2022/08/31 03:23:54;;;;;;;23.20;7.38;;;;;;;;;;5026909;28;20030;-65
2022/08/31 03:26:20;;;;;;;29.60;5.70;;;;;;;;;;5013982;28;20029;-65
2022/08/31 03:28:46;;;;;;;23.55;5.22;;;;;;;;;;5026248;28;20109;-65
2022/08/31 03:31:31;;;;;;;27.75;6.47;;;;;;;;;;5008504;28;20466;-65
2022/08/31 03:33:58;;;;;;;40.03;6.00;;;;;;;;;;5013687;28;20088;-65
2022/08/31 03:36:24;;;;;;;30.10;6.78;;;;;;;;;;5014031;28;20393;-65
2022/08/31 03:38:51;;;;;;;21.80;5.95;;;;;;;;;;5013676;28;20109;-65
2022/08/31 03:41:21;;;;;;;40.80;6.40;;;;;;;;;;5013978;28;20046;-65
2022/08/31 03:43:47;;;;;;;26.17;6.22;;;;;;;;;;5020181;28;20483;-65
2022/08/31 03:46:13;;;;;;;25.55;6.40;;;;;;;;;;5013648;28;20049;-65
2022/08/31 03:48:42;;;;;;;26.55;5.70;;;;;;;;;;5023186;28;20048;-65
2022/08/31 03:51:09;;;;;;;25.65;7.13;;;;;;;;;;5046790;28;20036;-65
2022/08/31 03:53:36;;;;;;;20.42;6.85;;;;;;;;;;5030173;28;20406;-65
2022/08/31 03:56:07;;;;;;;19.98;6.53;;;;;;;;;;5013218;28;20029;-65
2022/08/31 03:58:36;;;;;;;23.33;6.50;;;;;;;;;;5033598;28;20030;-65
2022/08/31 04:01:02;;;;;;;22.58;6.72;;;;;;;;;;5026558;28;20045;-65
2022/08/31 04:03:49;;;;;;;25.17;7.22;;;;;;;;;;5006643;28;20049;-65
2022/08/31 04:06:50;;;;;;;19.23;6.35;;;;;;;;;;4962583;28;20055;-65
2022/08/31 04:09:35;;;;;;;22.08;6.55;;;;;;;;;;4971812;28;20062;-65
2022/08/31 04:12:01;;;;;;;29.30;7.47;;;;;;;;;;4972121;28;20039;-65
2022/08/31 04:14:59;;;;;;;26.85;7.72;;;;;;;;;;4959321;28;20030;-65
2022/08/31 04:17:45;;;;;;;23.60;7.43;;;;;;;;;;4973020;28;20089;-65
2022/08/31 04:20:36;;;;;;;27.20;8.05;;;;;;;;;;4963192;28;20074;-65
2022/08/31 04:23:02;;;;;;;25.10;9.35;;;;;;;;;;4955612;28;20085;-65
2022/08/31 04:25:32;;;;;;;27.70;8.20;;;;;;;;;;4954165;28;20066;-65
2022/08/31 04:28:00;;;;;;;24.60;8.52;;;;;;;;;;4956769;28;20051;-65
2022/08/31 04:30:26;;;;;;;29.77;8.55;;;;;;;;;;4956561;28;20527;-65
2022/08/31 04:32:53;;;;;;;31.13;9.35;;;;;;;;;;4970415;28;20037;-65
2022/08/31 04:35:19;;;;;;;29.10;8.15;;;;;;;;;;4955681;28;20178;-65
2022/08/31 04:37:46;;;;;;;34.00;8.55;;;;;;;;;;4973083;28;20035;-65
2022/08/31 04:40:17;;;;;;;28.98;8.70;;;;;;;;;;4967203;28;20041;-65
2022/08/31 04:42:43;;;;;;;29.23;8.80;;;;;;;;;;5029243;28;20116;-65
2022/08/31 04:45:12;;;;;;;32.38;9.80;;;;;;;;;;5026282;28;20033;-65
2022/08/31 04:47:40;;;;;;;26.23;8.35;;;;;;;;;;5029150;28;20034;-65
2022/08/31 04:50:08;;;;;;;28.98;8.88;;;;;;;;;;5026546;28;20030;-65
2022/08/31 04:52:35;;;;;;;25.48;9.45;;;;;;;;;;5012886;28;20053;-65
2022/08/31 04:55:02;;;;;;;30.25;9.73;;;;;;;;;;5012276;28;20096;-65
2022/08/31 04:57:30;;;;;;;33.67;9.20;;;;;;;;;;5026800;28;20052;-65
2022/08/31 04:59:56;;;;;;;27.67;9.75;;;;;;;;;;5026055;28;20049;-65
2022/08/31 05:02:49;;;;;;;30.35;9.07;;;;;;;;;;5008704;28;20033;-65
2022/08/31 05:05:17;;;;;;;29.42;9.50;;;;;;;;;;4994549;28;20137;-65
2022/08/31 05:07:43;;;;;;;32.65;11.18;;;;;;;;;;4992806;28;20167;-65
2022/08/31 05:10:09;;;;;;;33.13;10.10;;;;;;;;;;4994157;28;20034;-65
2022/08/31 05:12:35;;;;;;;27.30;8.25;;;;;;;;;;4992129;28;20057;-65
2022/08/31 05:15:01;;;;;;;25.92;8.73;;;;;;;;;;4993269;28;20026;-65
2022/08/31 05:17:28;;;;;;;21.90;8.05;;;;;;;;;;5010715;28;20076;-65
2022/08/31 05:19:54;;;;;;;28.75;8.40;;;;;;;;;;5009981;28;20398;-65
2022/08/31 05:22:20;;;;;;;30.42;8.30;;;;;;;;;;5010455;28;20069;-65
2022/08/31 05:24:48;;;;;;;20.65;7.63;;;;;;;;;;4992884;28;20069;-65
2022/08/31 05:27:15;;;;;;;35.40;9.23;;;;;;;;;;4993785;28;20490;-65
2022/08/31 05:29:41;;;;;;;30.17;7.38;;;;;;;;;;4993331;28;20034;-65
2022/08/31 05:32:27;;;;;;;26.88;7.22;;;;;;;;;;5003393;28;20037;-65
2022/08/31 05:34:55;;;;;;;23.63;7.97;;;;;;;;;;4994275;28;20030;-65
2022/08/31 05:37:21;;;;;;;25.67;7.65;;;;;;;;;;4992254;28;20118;-65
2022/08/31 05:39:47;;;;;;;30.65;7.85;;;;;;;;;;5006036;28;20145;-65
2022/08/31 05:42:14;;;;;;;28.83;8.27;;;;;;;;;;5011289;28;20077;-65
2022/08/31 05:44:40;;;;;;;33.28;7.47;;;;;;;;;;5026110;28;20033;-65
2022/08/31 05:47:07;;;;;;;33.15;8.27;;;;;;;;;;5023001;28;20062;-65
2022/08/31 05:49:33;;;;;;;24.65;8.05;;;;;;;;;;5016950;28;20022;-65
2022/08/31 05:52:00;;;;;;;27.23;7.45;;;;;;;;;;5010479;28;20022;-65
2022/08/31 05:54:26;;;;;;;32.50;8.77;;;;;;;;;;5035361;28;20490;-65
2022/08/31 05:56:53;;;;;;;22.33;6.60;;;;;;;;;;5040805;28;20116;-65
2022/08/31 05:59:20;;;;;;;28.38;8.00;;;;;;;;;;5002316;28;20041;-65
2022/08/31 06:01:46;;;;;;;23.65;6.32;;;;;;;;;;5006719;28;20026;-65
2022/08/31 06:04:13;;;;;;;24.13;6.63;;;;;;;;;;5007736;28;20025;-65
2022/08/31 06:06:40;;;;;;;34.15;6.93;;;;;;;;;;5009596;28;20103;-65
2022/08/31 06:09:10;;;;;;;35.88;6.88;;;;;;;;;;5008622;28;20014;-65
2022/08/31 06:11:41;;;;;;;23.48;8.00;;;;;;;;;;5003915;28;20028;-65
2022/08/31 06:14:08;;;;;;;27.27;5.90;;;;;;;;;;5009027;28;20026;-65
2022/08/31 06:16:35;;;;;;;20.38;7.28;;;;;;;;;;5025257;28;20064;-65
2022/08/31 06:19:05;;;;;;;22.35;6.63;;;;;;;;;;5025079;28;20060;-65
2022/08/31 06:21:34;;;;;;;21.73;7.03;;;;;;;;;;5022408;28;20029;-65
2022/08/31 06:24:02;;;;;;;30.85;6.88;;;;;;;;;;5012356;28;20109;-65
2022/08/31 06:26:30;;;;;;;22.58;6.28;;;;;;;;;;5027816;28;20026;-65
2022/08/31 06:28:59;;;;;;;27.42;6.60;;;;;;;;;;5029267;28;20501;-65
2022/08/31 06:31:28;;;;;;;24.80;5.60;;;;;;;;;;5028452;28;20033;-65
2022/08/31 06:33:55;;;;;;;19.58;6.38;;;;;;;;;;5035559;28;20033;-70
2022/08/31 06:36:53;;;;;;;30.13;5.85;;;;;;;;;;5007083;28;20045;-64
2022/08/31 06:39:28;;;;;;;28.65;5.95;;;;;;;;;;5009771;28;20041;-65
2022/08/31 06:42:15;;;;;;;27.67;6.47;;;;;;;;;;5019003;28;20060;-65
2022/08/31 06:44:56;;;;;;;23.00;6.13;;;;;;;;;;5005082;28;20569;-65
2022/08/31 06:47:35;;;;;;;32.67;6.20;;;;;;;;;;5010291;28;20493;-65
2022/08/31 06:50:01;;;;;;;27.60;5.63;;;;;;;;;;5030652;28;20022;-65
2022/08/31 06:52:28;;;;;;;25.20;6.32;;;;;;;;;;5036481;28;20063;-65
2022/08/31 06:55:33;;;;;;;21.83;6.50;;;;;;;;;;4975746;28;20027;-66
2022/08/31 06:58:18;;;;;;;28.92;6.57;;;;;;;;;;4974673;28;20101;-65
2022/08/31 07:00:50;;;;;;;23.63;6.70;;;;;;;;;;4972644;28;20058;-66
2022/08/31 07:03:47;;;;;;;21.77;4.35;;;;;;;;;;4975090;28;20070;-66
2022/08/31 07:06:19;;;;;;;27.55;5.55;;;;;;;;;;4975894;28;20058;-66
2022/08/31 07:08:48;;;;;;;26.88;6.05;;;;;;;;;;4978140;28;20029;-66
2022/08/31 07:11:15;;;;;;;27.27;5.72;;;;;;;;;;4973801;28;20039;-66
2022/08/31 07:13:42;;;;;;;23.40;5.53;;;;;;;;;;4974004;28;20042;-66
2022/08/31 07:16:10;;;;;;;23.17;5.40;;;;;;;;;;4973638;28;20034;-66
2022/08/31 07:18:38;;;;;;;21.33;5.75;;;;;;;;;;4957822;28;20534;-66
2022/08/31 07:21:16;;;;;;;19.17;4.90;;;;;;;;;;4973999;28;20042;-66
2022/08/31 07:23:42;;;;;;;22.95;6.13;;;;;;;;;;4957459;28;20035;-66
2022/08/31 07:26:13;;;;;;;20.08;5.05;;;;;;;;;;4995900;28;20065;-66
2022/08/31 07:28:42;;;;;;;21.20;5.57;;;;;;;;;;5005454;28;20410;-66
2022/08/31 07:31:09;;;;;;;18.20;5.03;;;;;;;;;;5004533;28;20026;-66
2022/08/31 07:33:40;;;;;;;21.90;5.35;;;;;;;;;;5006862;28;20394;-66
2022/08/31 07:36:11;;;;;;;23.33;5.78;;;;;;;;;;5004106;28;20073;-66
2022/08/31 07:44:33;;;;;;;24.33;6.43;;;;;;;;;;5013753;28;20036;-65
2022/08/31 07:46:59;;;;;;;21.70;4.93;;;;;;;;;;5014695;28;20022;-65
2022/08/31 07:49:26;;;;;;;27.55;5.22;;;;;;;;;;5014313;28;20386;-65
2022/08/31 07:52:05;;;;;;;26.98;5.32;;;;;;;;;;5011240;28;20030;-65
2022/08/31 07:55:06;;;;;;;22.73;5.50;;;;;;;;;;5027877;28;20551;-65
2022/08/31 07:57:53;;;;;;;28.10;5.38;;;;;;;;;;5015922;28;20041;-65
2022/08/31 08:00:25;;;;;;;19.08;5.47;;;;;;;;;;5019169;28;20040;-65
2022/08/31 08:02:52;;;;;;;20.77;5.50;;;;;;;;;;5013070;28;20485;-65
2022/08/31 08:05:20;;;;;;;20.95;5.03;;;;;;;;;;5037677;28;20488;-65
2022/08/31 08:08:07;;;;;;;24.73;5.22;;;;;;;;;;5012623;28;20562;-65
2022/08/31 08:10:52;;;;;;;25.02;5.05;;;;;;;;;;5041655;28;20041;-65
2022/08/31 08:13:37;;;;;;;25.17;5.15;;;;;;;;;;5012677;28;20433;-66
2022/08/31 08:16:14;;;;;;;22.30;4.70;;;;;;;;;;5019995;28;20125;-66
2022/08/31 08:19:06;;;;;;;25.00;5.30;;;;;;;;;;5027926;28;20029;-65
2022/08/31 08:21:32;;;;;;;26.40;5.35;;;;;;;;;;5010347;28;20022;-65
2022/08/31 08:23:59;;;;;;;26.10;5.55;;;;;;;;;;5009683;28;20462;-65
2022/08/31 08:26:47;;;;;;;21.98;5.32;;;;;;;;;;5012877;28;20041;-65
2022/08/31 08:29:22;;;;;;;20.42;4.78;;;;;;;;;;5010432;28;20021;-65
2022/08/31 08:31:53;;;;;;;21.70;5.25;;;;;;;;;;5028244;28;20113;-65
2022/08/31 08:34:23;;;;;;;25.45;6.10;;;;;;;;;;5009097;28;20034;-65
2022/08/31 08:36:50;;;;;;;22.15;5.35;;;;;;;;;;5010078;28;20022;-65
2022/08/31 08:39:17;;;;;;;21.67;5.60;;;;;;;;;;5012094;28;20034;-65
2022/08/31 08:41:57;;;;;;;25.60;6.15;;;;;;;;;;5035593;28;20129;-65
2022/08/31 08:44:26;;;;;;;24.25;4.60;;;;;;;;;;5003213;28;20049;-65
2022/08/31 08:47:13;;;;;;;22.02;5.47;;;;;;;;;;5004315;28;20057;-66
2022/08/31 08:49:45;;;;;;;21.35;5.22;;;;;;;;;;5028124;28;20030;-66
2022/08/31 08:52:18;;;;;;;19.10;5.20;;;;;;;;;;5038064;28;21528;-65
2022/08/31 08:54:46;;;;;;;29.55;5.38;;;;;;;;;;5044486;28;20502;-66
2022/08/31 08:57:14;;;;;;;19.58;5.50;;;;;;;;;;5012048;28;20401;-66
2022/08/31 08:59:42;;;;;;;17.00;5.43;;;;;;;;;;5011247;28;20026;-66
2022/08/31 09:02:13;;;;;;;25.00;5.40;;;;;;;;;;5010386;28;20032;-66
2022/08/31 09:05:03;;;;;;;25.98;5.38;;;;;;;;;;5008553;28;20022;-66
2022/08/31 09:07:43;;;;;;;23.35;6.05;;;;;;;;;;5040620;28;20125;-66
2022/08/31 09:10:18;;;;;;;21.58;5.30;;;;;;;;;;5020108;28;20034;-66
2022/08/31 09:12:49;;;;;;;16.80;4.93;;;;;;;;;;5027058;28;20036;-66
2022/08/31 09:15:35;;;;;;;22.95;5.25;;;;;;;;;;5024398;28;20113;-66
2022/08/31 09:18:03;;;;;;;16.60;4.68;;;;;;;;;;5016711;28;20033;-66
2022/08/31 09:20:32;;;;;;;23.20;4.82;;;;;;;;;;5027654;28;20028;-66
2022/08/31 09:22:59;;;;;;;22.67;4.75;;;;;;;;;;5013888;28;20038;-66
2022/08/31 09:25:32;;;;;;;23.42;5.20;;;;;;;;;;5041089;28;20033;-66
2022/08/31 09:28:06;;;;;;;23.45;5.38;;;;;;;;;;5010115;28;20076;-66
2022/08/31 09:30:44;;;;;;;22.17;5.30;;;;;;;;;;5009806;28;20570;-66
2022/08/31 09:33:26;;;;;;;18.42;5.65;;;;;;;;;;5005187;28;20030;-66
2022/08/31 09:35:57;;;;;;;23.90;5.13;;;;;;;;;;5009838;28;20030;-66
2022/08/31 09:38:30;;;;;;;23.17;5.00;;;;;;;;;;5012824;28;20108;-66
2022/08/31 09:40:56;;;;;;;20.33;5.60;;;;;;;;;;5012646;28;20044;-66
2022/08/31 09:43:24;;;;;;;22.05;5.28;;;;;;;;;;5012959;28;20382;-66
2022/08/31 09:45:50;;;;;;;18.35;5.25;;;;;;;;;;5009130;28;20106;-66
2022/08/31 09:48:36;;;;;;;14.98;4.97;;;;;;;;;;5007010;28;20040;-66
2022/08/31 09:51:03;;;;;;;23.35;4.95;;;;;;;;;;5013621;28;20113;-66
2022/08/31 09:56:15;;;;;;;15.25;5.25;;;;;;;;;;5007945;28;20053;-66
2022/08/31 09:58:49;;;;;;;14.77;4.70;;;;;;;;;;5013794;28;20469;-66
2022/08/31 10:01:18;;;;;;;18.00;4.80;;;;;;;;;;5009608;28;20430;-66
2022/08/31 10:03:46;;;;;;;26.33;6.35;;;;;;;;;;5009757;28;20619;-66
2022/08/31 10:06:45;;;;;;;15.35;4.10;;;;;;;;;;5011580;28;20049;-65
2022/08/31 10:09:45;;;;;;;20.05;4.22;;;;;;;;;;5008122;28;20050;-65
2022/08/31 10:12:35;;;;;;;15.15;4.07;;;;;;;;;;5018622;28;20040;-65
2022/08/31 10:15:20;;;;;;;15.20;3.63;;;;;;;;;;4967873;28;20031;-65
2022/08/31 10:18:10;;;;;;;16.38;4.60;;;;;;;;;;4965905;28;20042;-65
2022/08/31 10:20:39;;;;;;;20.27;4.55;;;;;;;;;;4963525;28;20043;-66
2022/08/31 10:23:17;;;;;;;20.33;4.80;;;;;;;;;;4962641;28;20042;-66
2022/08/31 10:25:57;;;;;;;19.33;4.55;;;;;;;;;;4966975;28;20129;-66
2022/08/31 10:28:30;;;;;;;20.45;4.50;;;;;;;;;;4972032;28;20099;-66
2022/08/31 10:30:59;;;;;;;12.85;4.53;;;;;;;;;;4965557;28;20610;-66
2022/08/31 10:35:02;;;;;;;24.05;4.57;;;;;;;;;;4966715;28;20043;-66
2022/08/31 10:36:20;;;;;;;13.63;4.25;;;;;;;;;;4962872;28;20043;-66
2022/08/31 10:38:47;;;;;;;13.65;4.28;;;;;;;;;;4966197;28;20062;-66
2022/08/31 10:41:13;;;;;;;14.55;4.88;;;;;;;;;;4969694;28;20122;-66
2022/08/31 10:44:00;;;;;;;17.90;4.90;;;;;;;;;;4967358;28;20049;-66
2022/08/31 10:46:31;;;;;;;15.90;4.40;;;;;;;;;;4945965;28;20043;-66
2022/08/31 10:48:58;;;;;;;14.07;5.03;;;;;;;;;;4967928;28;20051;-66
2022/08/31 10:51:24;;;;;;;17.65;4.55;;;;;;;;;;4981648;28;20141;-66
2022/08/31 10:53:53;;;;;;;22.67;4.95;;;;;;;;;;5011254;28;20113;-66
2022/08/31 10:56:24;;;;;;;20.27;4.28;;;;;;;;;;5002190;28;20029;-66
2022/08/31 10:58:50;;;;;;;15.70;4.38;;;;;;;;;;4996063;28;20045;-66
2022/08/31 11:01:16;;;;;;;13.80;4.68;;;;;;;;;;5002238;28;20030;-66
2022/08/31 11:03:51;;;;;;;20.20;4.22;;;;;;;;;;5003002;28;20021;-66
2022/08/31 11:06:24;;;;;;;16.10;4.03;;;;;;;;;;5003078;28;20038;-66
2022/08/31 11:09:00;;;;;;;19.10;4.43;;;;;;;;;;5009919;28;20394;-66
2022/08/31 11:11:38;;;;;;;18.60;4.55;;;;;;;;;;5012982;28;20112;-66
2022/08/31 11:14:16;;;;;;;10.38;3.78;;;;;;;;;;5020351;28;20026;-66
2022/08/31 11:16:49;;;;;;;19.42;4.72;;;;;;;;;;5011534;28;20026;-66
2022/08/31 11:19:15;;;;;;;20.17;4.00;;;;;;;;;;5014987;28;20049;-66
2022/08/31 11:21:44;;;;;;;15.77;4.07;;;;;;;;;;5014925;28;20033;-66
2022/08/31 11:24:10;;;;;;;14.77;4.18;;;;;;;;;;5017529;28;20034;-66
2022/08/31 11:26:50;;;;;;;19.02;4.15;;;;;;;;;;5013523;28;20581;-66
2022/08/31 11:29:35;;;;;;;16.08;4.30;;;;;;;;;;5014617;28;20088;-66
2022/08/31 11:32:14;;;;;;;14.60;3.83;;;;;;;;;;5011908;28;20018;-66
2022/08/31 11:34:49;;;;;;;18.00;4.07;;;;;;;;;;5014864;28;20018;-66
2022/08/31 11:37:34;;;;;;;15.68;4.20;;;;;;;;;;5015067;28;20040;-67
2022/08/31 11:40:00;;;;;;;13.70;4.65;;;;;;;;;;5014667;28;20493;-67
2022/08/31 11:42:26;;;;;;;10.23;3.83;;;;;;;;;;5015227;28;20109;-67
2022/08/31 11:45:20;;;;;;;13.02;4.07;;;;;;;;;;5013672;28;20042;-67
2022/08/31 11:47:46;;;;;;;15.82;4.05;;;;;;;;;;5005689;28;20493;-66
2022/08/31 11:50:32;;;;;;;17.90;3.75;;;;;;;;;;5013827;28;20076;-66
2022/08/31 11:52:59;;;;;;;11.48;3.67;;;;;;;;;;5005803;28;20133;-66
2022/08/31 11:55:29;;;;;;;18.63;4.20;;;;;;;;;;5013797;28;20033;-66
2022/08/31 11:58:06;;;;;;;17.65;4.43;;;;;;;;;;5016209;28;20034;-66
2022/08/31 12:00:44;;;;;;;16.42;3.92;;;;;;;;;;5005474;28;20607;-66
2022/08/31 12:03:30;;;;;;;20.77;4.20;;;;;;;;;;5013949;28;20033;-66
2022/08/31 12:05:56;;;;;;;12.88;3.83;;;;;;;;;;5013863;28;20038;-66
2022/08/31 12:08:31;;;;;;;13.88;4.05;;;;;;;;;;5013922;28;20121;-67
2022/08/31 12:11:13;;;;;;;13.60;3.92;;;;;;;;;;5009939;28;20034;-67
2022/08/31 12:13:53;;;;;;;15.25;3.85;;;;;;;;;;5012877;28;20127;-66
2022/08/31 12:16:30;;;;;;;19.85;4.20;;;;;;;;;;5018060;28;20028;-66
2022/08/31 12:25:10;;;;;;;15.25;3.67;;;;;;;;;;5026027;28;20068;-67
2022/08/31 12:27:39;;;;;;;15.13;4.50;;;;;;;;;;5013930;28;20059;-67
2022/08/31 12:30:11;;;;;;;16.90;4.13;;;;;;;;;;5013586;28;20026;-67
2022/08/31 12:32:40;;;;;;;17.33;4.38;;;;;;;;;;5005693;28;20108;-66
2022/08/31 12:35:06;;;;;;;18.23;4.97;;;;;;;;;;5014136;28;20033;-66
2022/08/31 12:37:34;;;;;;;15.23;4.55;;;;;;;;;;5013691;28;20033;-66
2022/08/31 12:40:20;;;;;;;19.73;4.70;;;;;;;;;;5013794;28;20051;-66
2022/08/31 12:43:04;;;;;;;18.42;4.85;;;;;;;;;;5012514;28;20030;-66
2022/08/31 12:45:49;;;;;;;21.50;3.88;;;;;;;;;;5010925;28;20030;-66
2022/08/31 12:48:23;;;;;;;20.88;4.28;;;;;;;;;;5007559;28;20041;-66
2022/08/31 12:50:56;;;;;;;12.63;4.28;;;;;;;;;;5007186;28;20030;-66
2022/08/31 12:53:22;;;;;;;19.60;4.63;;;;;;;;;;5014328;28;20030;-66
2022/08/31 12:55:48;;;;;;;15.80;3.85;;;;;;;;;;5011580;28;20489;-66
2022/08/31 12:58:22;;;;;;;18.95;4.45;;;;;;;;;;5007454;28;20041;-66
2022/08/31 13:00:48;;;;;;;21.67;5.22;;;;;;;;;;5004019;28;20030;-66
2022/08/31 13:03:14;;;;;;;13.38;4.15;;;;;;;;;;5009926;28;20076;-66
2022/08/31 13:05:41;;;;;;;14.43;4.00;;;;;;;;;;5011173;28;20033;-66
2022/08/31 13:08:20;;;;;;;18.55;4.55;;;;;;;;;;5003072;28;20553;-66
2022/08/31 13:10:46;;;;;;;16.20;4.25;;;;;;;;;;5001432;28;20479;-66
2022/08/31 13:13:20;;;;;;;10.52;3.97;;;;;;;;;;5000855;28;20010;-66
2022/08/31 13:15:46;;;;;;;12.68;3.70;;;;;;;;;;4997439;28;20045;-66
2022/08/31 13:18:14;;;;;;;19.35;4.68;;;;;;;;;;5002134;28;20114;-66
2022/08/31 13:20:42;;;;;;;15.07;4.28;;;;;;;;;;5003253;28;20076;-66
2022/08/31 13:23:10;;;;;;;8.98;3.55;;;;;;;;;;5012874;28;20087;-66
2022/08/31 13:25:36;;;;;;;13.48;4.50;;;;;;;;;;5001195;28;20116;-66
2022/08/31 13:28:03;;;;;;;15.75;3.70;;;;;;;;;;5006597;28;20144;-66
2022/08/31 13:30:30;;;;;;;13.98;4.25;;;;;;;;;;5003425;28;20037;-66
2022/08/31 13:32:56;;;;;;;11.43;4.18;;;;;;;;;;4999879;28;20836;-66
2022/08/31 13:35:24;;;;;;;14.45;3.92;;;;;;;;;;5005821;28;20018;-66
2022/08/31 13:38:06;;;;;;;11.43;4.10;;;;;;;;;;5002673;28;20397;-66
2022/08/31 13:40:35;;;;;;;17.20;3.85;;;;;;;;;;5001144;28;20041;-66
2022/08/31 13:43:02;;;;;;;20.88;4.20;;;;;;;;;;4999880;28;20030;-66
2022/08/31 13:45:30;;;;;;;14.57;3.58;;;;;;;;;;5007307;28;20109;-66
2022/08/31 13:48:01;;;;;;;21.65;3.70;;;;;;;;;;5005375;28;20030;-66
2022/08/31 13:50:32;;;;;;;14.50;3.60;;;;;;;;;;5002195;28;20029;-66
2022/08/31 13:52:59;;;;;;;15.43;5.22;;;;;;;;;;5001500;28;20463;-66
2022/08/31 13:55:31;;;;;;;14.95;4.15;;;;;;;;;;5001991;28;20021;-66
2022/08/31 13:58:03;;;;;;;13.90;4.47;;;;;;;;;;5009718;28;20031;-66
2022/08/31 14:00:32;;;;;;;14.43;3.78;;;;;;;;;;5000815;28;20112;-66
2022/08/31 14:03:18;;;;;;;14.48;3.35;;;;;;;;;;5004967;28;20061;-66
2022/08/31 14:05:44;;;;;;;15.55;3.55;;;;;;;;;;5004545;28;20057;-66
2022/08/31 14:08:18;;;;;;;18.00;3.25;;;;;;;;;;5007647;28;20047;-66
2022/08/31 14:10:48;;;;;;;13.02;3.58;;;;;;;;;;5004722;28;20026;-66
2022/08/31 14:13:16;;;;;;;21.23;4.05;;;;;;;;;;5005159;28;20022;-66
2022/08/31 14:15:52;;;;;;;15.73;3.90;;;;;;;;;;5007240;28;20504;-66
2022/08/31 14:18:25;;;;;;;16.30;3.60;;;;;;;;;;5002651;28;20117;-66
2022/08/31 14:21:04;;;;;;;18.88;4.25;;;;;;;;;;4999545;28;20057;-66
2022/08/31 14:23:33;;;;;;;11.45;3.50;;;;;;;;;;5006426;28;20037;-66
2022/08/31 14:26:04;;;;;;;13.55;3.45;;;;;;;;;;5003501;28;20429;-66
2022/08/31 14:28:48;;;;;;;17.08;3.58;;;;;;;;;;5006750;28;20029;-66
2022/08/31 14:31:25;;;;;;;23.23;4.53;;;;;;;;;;5010932;28;20026;-66
2022/08/31 14:34:13;;;;;;;19.35;3.85;;;;;;;;;;4999392;28;20117;-66
2022/08/31 14:36:53;;;;;;;13.80;3.90;;;;;;;;;;5004630;28;20062;-66
2022/08/31 14:39:46;;;;;;;12.57;3.55;;;;;;;;;;4999510;28;20022;-67
2022/08/31 14:42:16;;;;;;;18.15;4.20;;;;;;;;;;5002282;28;20105;-69
2022/08/31 14:44:45;;;;;;;14.50;3.70;;;;;;;;;;5003451;28;20061;-70
2022/08/31 14:47:11;;;;;;;15.48;3.85;;;;;;;;;;5016102;28;20068;-69
2022/08/31 14:49:38;;;;;;;16.20;4.18;;;;;;;;;;5005379;28;20041;-68
2022/08/31 14:52:05;;;;;;;12.25;4.20;;;;;;;;;;5010022;28;20018;-70
2022/08/31 14:54:34;;;;;;;11.88;3.17;;;;;;;;;;5003040;28;20033;-68
2022/08/31 14:57:01;;;;;;;27.67;4.20;;;;;;;;;;5006104;28;20088;-69
2022/08/31 14:59:28;;;;;;;19.42;4.15;;;;;;;;;;5004142;28;20080;-70
2022/08/31 15:01:56;;;;;;;18.17;3.83;;;;;;;;;;4999743;28;20041;-70
2022/08/31 15:04:23;;;;;;;20.55;4.22;;;;;;;;;;5008245;28;20026;-69
2022/08/31 15:07:02;;;;;;;18.13;4.63;;;;;;;;;;4998633;28;20046;-70
2022/08/31 15:09:30;;;;;;;21.73;4.90;;;;;;;;;;5011183;28;20025;-69
2022/08/31 15:11:59;;;;;;;15.68;4.10;;;;;;;;;;5007999;28;20089;-69
2022/08/31 15:14:26;;;;;;;11.35;3.67;;;;;;;;;;5006762;28;20088;-69